sensor_id;sensor_type;location;lat;lon;timestamp;temperature;humidity
28959;DHT22;16066;0.000;0.000;2023-03-15T00:01:31;19.80;41.90
28959;DHT22;16066;0.000;0.000;2023-03-15T00:03:56;19.80;41.90
28959;DHT22;16066;0.000;0.000;2023-03-15T00:06:22;19.70;41.80
28959;DHT22;16066;0.000;0.000;2023-03-15T00:08:47;19.70;41.80
28959;DHT22;16066;0.000;0.000;2023-03-15T00:11:14;19.70;41.90
28959;DHT22;16066;0.000;0.000;2023-03-15T00:13:40;19.70;42.10
28959;DHT22;16066;0.000;0.000;2023-03-15T00:16:06;19.60;41.90
28959;DHT22;16066;0.000;0.000;2023-03-15T00:18:31;19.60;41.90
28959;DHT22;16066;0.000;0.000;2023-03-15T00:20:57;19.60;41.90
28959;DHT22;16066;0.000;0.000;2023-03-15T00:23:23;19.50;42.10
28959;DHT22;16066;0.000;0.000;2023-03-15T00:25:50;19.50;42.00
28959;DHT22;16066;0.000;0.000;2023-03-15T00:28:16;19.50;42.10
28959;DHT22;16066;0.000;0.000;2023-03-15T00:30:42;19.50;42.20
28959;DHT22;16066;0.000;0.000;2023-03-15T00:33:09;19.50;42.40
28959;DHT22;16066;0.000;0.000;2023-03-15T00:35:42;19.40;42.20
28959;DHT22;16066;0.000;0.000;2023-03-15T00:38:08;19.40;42.20
28959;DHT22;16066;0.000;0.000;2023-03-15T00:40:35;19.40;42.40
28959;DHT22;16066;0.000;0.000;2023-03-15T00:43:01;19.40;42.20
28959;DHT22;16066;0.000;0.000;2023-03-15T00:45:27;19.30;42.30
28959;DHT22;16066;0.000;0.000;2023-03-15T00:47:53;19.30;43.00
28959;DHT22;16066;0.000;0.000;2023-03-15T00:50:20;19.30;42.10
28959;DHT22;16066;0.000;0.000;2023-03-15T00:52:46;19.30;42.40
28959;DHT22;16066;0.000;0.000;2023-03-15T00:55:14;19.20;42.40
28959;DHT22;16066;0.000;0.000;2023-03-15T00:57:41;19.20;42.40
28959;DHT22;16066;0.000;0.000;2023-03-15T01:00:10;19.20;42.50
28959;DHT22;16066;0.000;0.000;2023-03-15T01:02:36;19.20;42.60
28959;DHT22;16066;0.000;0.000;2023-03-15T01:05:03;19.20;42.70
28959;DHT22;16066;0.000;0.000;2023-03-15T01:07:29;19.10;42.70
28959;DHT22;16066;0.000;0.000;2023-03-15T01:09:58;19.10;42.70
28959;DHT22;16066;0.000;0.000;2023-03-15T01:12:23;19.10;42.70
28959;DHT22;16066;0.000;0.000;2023-03-15T01:14:49;19.10;42.80
28959;DHT22;16066;0.000;0.000;2023-03-15T01:17:14;19.10;42.90
28959;DHT22;16066;0.000;0.000;2023-03-15T01:19:40;19.10;42.90
28959;DHT22;16066;0.000;0.000;2023-03-15T01:22:05;19.10;43.00
28959;DHT22;16066;0.000;0.000;2023-03-15T01:24:31;19.00;42.90
28959;DHT22;16066;0.000;0.000;2023-03-15T01:26:56;19.00;43.00
28959;DHT22;16066;0.000;0.000;2023-03-15T01:29:22;19.00;43.00
28959;DHT22;16066;0.000;0.000;2023-03-15T01:31:47;19.00;43.00
28959;DHT22;16066;0.000;0.000;2023-03-15T01:34:13;19.00;43.00
28959;DHT22;16066;0.000;0.000;2023-03-15T01:36:38;19.00;43.00
28959;DHT22;16066;0.000;0.000;2023-03-15T01:39:04;19.00;43.10
28959;DHT22;16066;0.000;0.000;2023-03-15T01:41:29;19.00;43.10
28959;DHT22;16066;0.000;0.000;2023-03-15T01:43:55;19.00;43.10
28959;DHT22;16066;0.000;0.000;2023-03-15T01:46:30;18.90;43.10
28959;DHT22;16066;0.000;0.000;2023-03-15T01:51:54;18.90;43.20
28959;DHT22;16066;0.000;0.000;2023-03-15T01:59:39;18.90;43.20
28959;DHT22;16066;0.000;0.000;2023-03-15T02:02:06;18.90;43.30
28959;DHT22;16066;0.000;0.000;2023-03-15T02:04:35;18.90;43.30
28959;DHT22;16066;0.000;0.000;2023-03-15T02:07:03;18.90;43.30
28959;DHT22;16066;0.000;0.000;2023-03-15T02:09:52;18.90;43.30
28959;DHT22;16066;0.000;0.000;2023-03-15T02:12:19;18.90;43.30
28959;DHT22;16066;0.000;0.000;2023-03-15T02:14:45;18.90;43.30
28959;DHT22;16066;0.000;0.000;2023-03-15T02:17:11;18.90;43.30
28959;DHT22;16066;0.000;0.000;2023-03-15T02:22:14;18.80;43.30
28959;DHT22;16066;0.000;0.000;2023-03-15T02:24:56;18.80;43.20
28959;DHT22;16066;0.000;0.000;2023-03-15T02:27:28;18.80;43.30
28959;DHT22;16066;0.000;0.000;2023-03-15T02:29:54;18.80;43.30
28959;DHT22;16066;0.000;0.000;2023-03-15T02:32:20;18.80;43.30
28959;DHT22;16066;0.000;0.000;2023-03-15T02:34:45;18.80;44.00
28959;DHT22;16066;0.000;0.000;2023-03-15T02:37:11;18.80;43.50
28959;DHT22;16066;0.000;0.000;2023-03-15T02:39:37;18.80;43.20
28959;DHT22;16066;0.000;0.000;2023-03-15T02:42:02;18.80;43.10
28959;DHT22;16066;0.000;0.000;2023-03-15T02:44:33;18.80;43.20
28959;DHT22;16066;0.000;0.000;2023-03-15T02:47:38;18.80;43.20
28959;DHT22;16066;0.000;0.000;2023-03-15T02:49:56;18.80;43.20
28959;DHT22;16066;0.000;0.000;2023-03-15T02:52:22;18.80;43.20
28959;DHT22;16066;0.000;0.000;2023-03-15T02:54:48;18.80;43.30
28959;DHT22;16066;0.000;0.000;2023-03-15T02:57:16;18.70;43.30
28959;DHT22;16066;0.000;0.000;2023-03-15T02:59:42;18.80;43.40
28959;DHT22;16066;0.000;0.000;2023-03-15T03:02:09;18.80;43.30
28959;DHT22;16066;0.000;0.000;2023-03-15T03:04:39;18.80;43.40
28959;DHT22;16066;0.000;0.000;2023-03-15T03:07:06;18.80;43.40
28959;DHT22;16066;0.000;0.000;2023-03-15T03:09:31;18.70;43.40
28959;DHT22;16066;0.000;0.000;2023-03-15T03:11:57;18.70;43.30
28959;DHT22;16066;0.000;0.000;2023-03-15T03:14:23;18.70;43.40
28959;DHT22;16066;0.000;0.000;2023-03-15T03:16:49;18.70;43.40
28959;DHT22;16066;0.000;0.000;2023-03-15T03:19:15;18.70;43.40
28959;DHT22;16066;0.000;0.000;2023-03-15T03:21:41;18.70;43.40
28959;DHT22;16066;0.000;0.000;2023-03-15T03:24:10;18.70;43.50
28959;DHT22;16066;0.000;0.000;2023-03-15T03:26:36;18.70;43.50
28959;DHT22;16066;0.000;0.000;2023-03-15T03:29:03;18.70;43.40
28959;DHT22;16066;0.000;0.000;2023-03-15T03:31:32;18.70;43.50
28959;DHT22;16066;0.000;0.000;2023-03-15T03:33:58;18.70;43.50
28959;DHT22;16066;0.000;0.000;2023-03-15T03:36:24;18.70;43.50
28959;DHT22;16066;0.000;0.000;2023-03-15T03:38:50;18.70;43.50
28959;DHT22;16066;0.000;0.000;2023-03-15T03:41:16;18.70;43.40
28959;DHT22;16066;0.000;0.000;2023-03-15T03:43:42;18.70;43.50
28959;DHT22;16066;0.000;0.000;2023-03-15T03:46:08;18.70;43.30
28959;DHT22;16066;0.000;0.000;2023-03-15T03:48:33;18.70;43.40
28959;DHT22;16066;0.000;0.000;2023-03-15T03:50:59;18.70;43.50
28959;DHT22;16066;0.000;0.000;2023-03-15T03:53:24;18.70;43.50
28959;DHT22;16066;0.000;0.000;2023-03-15T03:55:50;18.70;43.40
28959;DHT22;16066;0.000;0.000;2023-03-15T03:58:15;18.70;43.50
28959;DHT22;16066;0.000;0.000;2023-03-15T04:00:41;18.70;43.50
28959;DHT22;16066;0.000;0.000;2023-03-15T04:03:07;18.70;43.40
28959;DHT22;16066;0.000;0.000;2023-03-15T04:05:33;18.70;43.60
28959;DHT22;16066;0.000;0.000;2023-03-15T04:07:59;18.70;43.70
28959;DHT22;16066;0.000;0.000;2023-03-15T04:10:24;18.70;43.60
28959;DHT22;16066;0.000;0.000;2023-03-15T04:12:57;18.70;43.60
28959;DHT22;16066;0.000;0.000;2023-03-15T04:15:23;18.70;43.60
28959;DHT22;16066;0.000;0.000;2023-03-15T04:17:50;18.70;43.60
28959;DHT22;16066;0.000;0.000;2023-03-15T04:20:21;18.70;43.60
28959;DHT22;16066;0.000;0.000;2023-03-15T04:22:47;18.70;43.60
28959;DHT22;16066;0.000;0.000;2023-03-15T04:25:15;18.70;43.60
28959;DHT22;16066;0.000;0.000;2023-03-15T04:27:40;18.70;43.50
28959;DHT22;16066;0.000;0.000;2023-03-15T04:30:06;18.60;43.60
28959;DHT22;16066;0.000;0.000;2023-03-15T04:32:32;18.60;43.50
28959;DHT22;16066;0.000;0.000;2023-03-15T04:34:58;18.60;43.60
28959;DHT22;16066;0.000;0.000;2023-03-15T04:37:24;18.60;43.60
28959;DHT22;16066;0.000;0.000;2023-03-15T04:39:49;18.60;43.60
28959;DHT22;16066;0.000;0.000;2023-03-15T04:42:16;18.60;43.70
28959;DHT22;16066;0.000;0.000;2023-03-15T04:44:42;18.60;43.60
28959;DHT22;16066;0.000;0.000;2023-03-15T04:47:08;18.60;43.70
28959;DHT22;16066;0.000;0.000;2023-03-15T04:49:33;18.60;43.70
28959;DHT22;16066;0.000;0.000;2023-03-15T04:51:59;18.60;43.70
28959;DHT22;16066;0.000;0.000;2023-03-15T04:54:25;18.60;43.70
28959;DHT22;16066;0.000;0.000;2023-03-15T04:56:50;18.60;43.70
28959;DHT22;16066;0.000;0.000;2023-03-15T04:59:16;18.60;43.70
28959;DHT22;16066;0.000;0.000;2023-03-15T05:01:41;18.60;43.60
28959;DHT22;16066;0.000;0.000;2023-03-15T05:04:07;18.60;43.70
28959;DHT22;16066;0.000;0.000;2023-03-15T05:06:32;18.60;43.70
28959;DHT22;16066;0.000;0.000;2023-03-15T05:08:58;18.60;43.70
28959;DHT22;16066;0.000;0.000;2023-03-15T05:11:23;18.50;43.60
28959;DHT22;16066;0.000;0.000;2023-03-15T05:13:49;18.50;43.60
28959;DHT22;16066;0.000;0.000;2023-03-15T05:16:14;18.50;43.60
28959;DHT22;16066;0.000;0.000;2023-03-15T05:18:40;18.50;43.80
28959;DHT22;16066;0.000;0.000;2023-03-15T05:21:06;18.60;43.80
28959;DHT22;16066;0.000;0.000;2023-03-15T05:23:31;18.60;43.90
28959;DHT22;16066;0.000;0.000;2023-03-15T05:25:58;18.60;44.10
28959;DHT22;16066;0.000;0.000;2023-03-15T05:28:24;18.60;44.30
28959;DHT22;16066;0.000;0.000;2023-03-15T05:30:51;18.60;44.30
28959;DHT22;16066;0.000;0.000;2023-03-15T05:33:17;18.60;44.50
28959;DHT22;16066;0.000;0.000;2023-03-15T05:35:44;18.60;44.50
28959;DHT22;16066;0.000;0.000;2023-03-15T05:38:10;18.60;44.60
28959;DHT22;16066;0.000;0.000;2023-03-15T05:40:42;18.70;44.50
28959;DHT22;16066;0.000;0.000;2023-03-15T05:43:07;18.70;44.40
28959;DHT22;16066;0.000;0.000;2023-03-15T05:45:33;18.80;44.30
28959;DHT22;16066;0.000;0.000;2023-03-15T05:47:58;18.80;44.10
28959;DHT22;16066;0.000;0.000;2023-03-15T05:50:24;18.90;44.10
28959;DHT22;16066;0.000;0.000;2023-03-15T05:52:50;18.90;44.00
28959;DHT22;16066;0.000;0.000;2023-03-15T05:55:16;19.00;44.00
28959;DHT22;16066;0.000;0.000;2023-03-15T05:57:42;19.00;43.90
28959;DHT22;16066;0.000;0.000;2023-03-15T06:00:08;19.10;43.90
28959;DHT22;16066;0.000;0.000;2023-03-15T06:02:34;19.10;43.90
28959;DHT22;16066;0.000;0.000;2023-03-15T06:05:00;19.10;43.70
28959;DHT22;16066;0.000;0.000;2023-03-15T06:07:25;19.20;43.70
28959;DHT22;16066;0.000;0.000;2023-03-15T06:09:51;19.20;43.50
28959;DHT22;16066;0.000;0.000;2023-03-15T06:12:17;19.20;43.20
28959;DHT22;16066;0.000;0.000;2023-03-15T06:14:42;19.30;43.20
28959;DHT22;16066;0.000;0.000;2023-03-15T06:17:08;19.30;43.10
28959;DHT22;16066;0.000;0.000;2023-03-15T06:19:33;19.40;43.10
28959;DHT22;16066;0.000;0.000;2023-03-15T06:21:59;19.40;42.90
28959;DHT22;16066;0.000;0.000;2023-03-15T06:24:24;19.50;42.90
28959;DHT22;16066;0.000;0.000;2023-03-15T06:26:50;19.50;42.70
28959;DHT22;16066;0.000;0.000;2023-03-15T06:29:15;19.60;42.70
28959;DHT22;16066;0.000;0.000;2023-03-15T06:31:42;19.60;42.60
28959;DHT22;16066;0.000;0.000;2023-03-15T06:34:07;19.70;42.60
28959;DHT22;16066;0.000;0.000;2023-03-15T06:36:33;19.70;42.40
28959;DHT22;16066;0.000;0.000;2023-03-15T06:39:01;19.80;42.40
28959;DHT22;16066;0.000;0.000;2023-03-15T06:41:27;19.80;42.20
28959;DHT22;16066;0.000;0.000;2023-03-15T06:43:52;19.90;42.20
28959;DHT22;16066;0.000;0.000;2023-03-15T06:46:18;19.90;42.10
28959;DHT22;16066;0.000;0.000;2023-03-15T06:48:43;19.90;41.90
28959;DHT22;16066;0.000;0.000;2023-03-15T06:51:09;19.90;41.80
28959;DHT22;16066;0.000;0.000;2023-03-15T06:53:34;20.00;41.90
28959;DHT22;16066;0.000;0.000;2023-03-15T06:56:00;20.00;41.80
28959;DHT22;16066;0.000;0.000;2023-03-15T06:58:25;20.00;41.40
28959;DHT22;16066;0.000;0.000;2023-03-15T07:00:51;20.00;41.10
28959;DHT22;16066;0.000;0.000;2023-03-15T07:03:16;20.00;40.90
28959;DHT22;16066;0.000;0.000;2023-03-15T07:05:43;20.00;40.90
28959;DHT22;16066;0.000;0.000;2023-03-15T07:08:09;20.00;40.80
28959;DHT22;16066;0.000;0.000;2023-03-15T07:10:35;20.10;40.90
28959;DHT22;16066;0.000;0.000;2023-03-15T07:13:00;20.10;40.90
28959;DHT22;16066;0.000;0.000;2023-03-15T07:15:26;20.10;40.90
28959;DHT22;16066;0.000;0.000;2023-03-15T07:17:52;20.10;41.00
28959;DHT22;16066;0.000;0.000;2023-03-15T07:20:18;20.10;41.10
28959;DHT22;16066;0.000;0.000;2023-03-15T07:22:43;20.10;41.30
28959;DHT22;16066;0.000;0.000;2023-03-15T07:25:10;20.20;41.60
28959;DHT22;16066;0.000;0.000;2023-03-15T07:27:35;20.20;41.60
28959;DHT22;16066;0.000;0.000;2023-03-15T07:30:01;20.20;41.50
28959;DHT22;16066;0.000;0.000;2023-03-15T07:32:27;20.20;41.50
28959;DHT22;16066;0.000;0.000;2023-03-15T07:34:53;20.20;41.50
28959;DHT22;16066;0.000;0.000;2023-03-15T07:37:22;20.20;41.60
28959;DHT22;16066;0.000;0.000;2023-03-15T07:39:47;20.20;41.70
28959;DHT22;16066;0.000;0.000;2023-03-15T07:42:13;20.10;41.70
28959;DHT22;16066;0.000;0.000;2023-03-15T07:44:39;20.20;42.00
28959;DHT22;16066;0.000;0.000;2023-03-15T07:47:04;20.10;42.10
28959;DHT22;16066;0.000;0.000;2023-03-15T07:49:30;20.10;42.40
28959;DHT22;16066;0.000;0.000;2023-03-15T07:51:56;20.10;42.40
28959;DHT22;16066;0.000;0.000;2023-03-15T07:54:22;20.20;43.10
28959;DHT22;16066;0.000;0.000;2023-03-15T07:56:47;20.20;42.40
28959;DHT22;16066;0.000;0.000;2023-03-15T07:59:13;20.20;42.30
28959;DHT22;16066;0.000;0.000;2023-03-15T08:01:38;20.10;42.10
28959;DHT22;16066;0.000;0.000;2023-03-15T08:04:04;20.10;42.10
28959;DHT22;16066;0.000;0.000;2023-03-15T08:06:30;20.10;42.00
28959;DHT22;16066;0.000;0.000;2023-03-15T08:08:56;20.10;42.00
28959;DHT22;16066;0.000;0.000;2023-03-15T08:11:21;20.10;42.00
28959;DHT22;16066;0.000;0.000;2023-03-15T08:13:47;20.10;41.90
28959;DHT22;16066;0.000;0.000;2023-03-15T08:16:12;20.10;42.50
28959;DHT22;16066;0.000;0.000;2023-03-15T08:18:38;20.10;42.10
28959;DHT22;16066;0.000;0.000;2023-03-15T08:21:03;20.10;42.30
28959;DHT22;16066;0.000;0.000;2023-03-15T08:23:29;20.10;42.40
28959;DHT22;16066;0.000;0.000;2023-03-15T08:25:55;20.10;42.50
28959;DHT22;16066;0.000;0.000;2023-03-15T08:28:21;20.00;42.60
28959;DHT22;16066;0.000;0.000;2023-03-15T08:30:46;20.00;42.90
28959;DHT22;16066;0.000;0.000;2023-03-15T08:33:12;20.00;43.10
28959;DHT22;16066;0.000;0.000;2023-03-15T08:35:38;20.00;43.10
28959;DHT22;16066;0.000;0.000;2023-03-15T08:38:03;20.00;43.00
28959;DHT22;16066;0.000;0.000;2023-03-15T08:40:29;20.00;43.20
28959;DHT22;16066;0.000;0.000;2023-03-15T08:42:56;20.00;43.10
28959;DHT22;16066;0.000;0.000;2023-03-15T08:45:23;20.00;43.10
28959;DHT22;16066;0.000;0.000;2023-03-15T08:47:53;20.00;43.10
28959;DHT22;16066;0.000;0.000;2023-03-15T08:50:18;20.00;43.70
28959;DHT22;16066;0.000;0.000;2023-03-15T08:52:44;20.00;43.00
28959;DHT22;16066;0.000;0.000;2023-03-15T08:55:10;20.00;43.00
28959;DHT22;16066;0.000;0.000;2023-03-15T08:57:39;20.00;43.10
28959;DHT22;16066;0.000;0.000;2023-03-15T09:00:06;20.00;43.00
28959;DHT22;16066;0.000;0.000;2023-03-15T09:02:35;20.00;43.10
28959;DHT22;16066;0.000;0.000;2023-03-15T09:05:01;20.00;42.90
28959;DHT22;16066;0.000;0.000;2023-03-15T09:07:27;20.00;42.90
28959;DHT22;16066;0.000;0.000;2023-03-15T09:09:52;20.00;42.90
28959;DHT22;16066;0.000;0.000;2023-03-15T09:12:19;20.00;42.90
28959;DHT22;16066;0.000;0.000;2023-03-15T09:14:45;20.00;42.80
28959;DHT22;16066;0.000;0.000;2023-03-15T09:17:11;19.90;42.60
28959;DHT22;16066;0.000;0.000;2023-03-15T09:19:37;20.00;42.70
28959;DHT22;16066;0.000;0.000;2023-03-15T09:22:02;19.90;42.50
28959;DHT22;16066;0.000;0.000;2023-03-15T09:24:28;19.90;42.60
28959;DHT22;16066;0.000;0.000;2023-03-15T09:26:53;20.00;42.80
28959;DHT22;16066;0.000;0.000;2023-03-15T09:29:19;20.00;42.90
28959;DHT22;16066;0.000;0.000;2023-03-15T09:31:45;19.90;42.80
28959;DHT22;16066;0.000;0.000;2023-03-15T09:34:10;20.00;42.90
28959;DHT22;16066;0.000;0.000;2023-03-15T09:36:37;20.00;42.90
28959;DHT22;16066;0.000;0.000;2023-03-15T09:39:02;20.00;42.80
28959;DHT22;16066;0.000;0.000;2023-03-15T09:41:41;20.00;42.70
28959;DHT22;16066;0.000;0.000;2023-03-15T09:49:44;20.10;42.80
28959;DHT22;16066;0.000;0.000;2023-03-15T09:52:25;20.10;42.70
28959;DHT22;16066;0.000;0.000;2023-03-15T09:55:02;20.10;42.70
28959;DHT22;16066;0.000;0.000;2023-03-15T09:57:47;20.10;42.80
28959;DHT22;16066;0.000;0.000;2023-03-15T10:00:19;20.10;42.70
28959;DHT22;16066;0.000;0.000;2023-03-15T10:03:33;20.10;42.70
28959;DHT22;16066;0.000;0.000;2023-03-15T10:06:06;20.10;42.70
28959;DHT22;16066;0.000;0.000;2023-03-15T10:08:35;20.10;42.80
28959;DHT22;16066;0.000;0.000;2023-03-15T10:16:47;20.20;42.60
28959;DHT22;16066;0.000;0.000;2023-03-15T10:19:31;20.20;42.60
28959;DHT22;16066;0.000;0.000;2023-03-15T10:29:59;20.20;42.80
28959;DHT22;16066;0.000;0.000;2023-03-15T10:32:29;20.20;42.10
28959;DHT22;16066;0.000;0.000;2023-03-15T10:34:56;20.10;41.80
28959;DHT22;16066;0.000;0.000;2023-03-15T10:37:24;20.10;41.70
28959;DHT22;16066;0.000;0.000;2023-03-15T10:39:56;20.10;41.60
28959;DHT22;16066;0.000;0.000;2023-03-15T10:42:30;20.10;41.70
28959;DHT22;16066;0.000;0.000;2023-03-15T10:44:58;20.10;41.70
28959;DHT22;16066;0.000;0.000;2023-03-15T10:47:25;20.10;41.80
28959;DHT22;16066;0.000;0.000;2023-03-15T10:49:58;20.10;41.80
28959;DHT22;16066;0.000;0.000;2023-03-15T10:52:37;20.20;41.90
28959;DHT22;16066;0.000;0.000;2023-03-15T10:55:11;20.20;42.00
28959;DHT22;16066;0.000;0.000;2023-03-15T10:57:40;20.20;42.20
28959;DHT22;16066;0.000;0.000;2023-03-15T11:03:05;20.30;42.00
28959;DHT22;16066;0.000;0.000;2023-03-15T11:05:39;20.30;42.00
28959;DHT22;16066;0.000;0.000;2023-03-15T11:08:13;20.30;41.80
28959;DHT22;16066;0.000;0.000;2023-03-15T11:10:40;20.30;41.80
28959;DHT22;16066;0.000;0.000;2023-03-15T11:13:10;20.30;41.70
28959;DHT22;16066;0.000;0.000;2023-03-15T11:15:36;20.40;41.80
28959;DHT22;16066;0.000;0.000;2023-03-15T11:18:02;20.40;42.00
28959;DHT22;16066;0.000;0.000;2023-03-15T11:20:30;20.30;41.90
28959;DHT22;16066;0.000;0.000;2023-03-15T11:23:00;20.30;42.00
28959;DHT22;16066;0.000;0.000;2023-03-15T11:25:31;20.40;42.10
28959;DHT22;16066;0.000;0.000;2023-03-15T11:27:58;20.40;42.10
28959;DHT22;16066;0.000;0.000;2023-03-15T11:30:28;20.30;41.90
28959;DHT22;16066;0.000;0.000;2023-03-15T11:32:54;20.40;42.10
28959;DHT22;16066;0.000;0.000;2023-03-15T11:35:27;20.40;42.20
28959;DHT22;16066;0.000;0.000;2023-03-15T11:38:03;20.40;42.50
28959;DHT22;16066;0.000;0.000;2023-03-15T11:40:32;20.40;42.20
28959;DHT22;16066;0.000;0.000;2023-03-15T11:43:20;20.50;42.20
28959;DHT22;16066;0.000;0.000;2023-03-15T11:45:52;20.40;42.00
28959;DHT22;16066;0.000;0.000;2023-03-15T11:50:59;20.50;42.10
28959;DHT22;16066;0.000;0.000;2023-03-15T11:53:30;20.50;42.10
28959;DHT22;16066;0.000;0.000;2023-03-15T11:56:18;20.50;42.10
28959;DHT22;16066;0.000;0.000;2023-03-15T11:58:44;20.60;42.00
28959;DHT22;16066;0.000;0.000;2023-03-15T12:01:26;20.60;41.90
28959;DHT22;16066;0.000;0.000;2023-03-15T12:15:05;20.70;42.50
28959;DHT22;16066;0.000;0.000;2023-03-15T12:17:38;20.70;43.00
28959;DHT22;16066;0.000;0.000;2023-03-15T12:20:17;20.70;42.40
28959;DHT22;16066;0.000;0.000;2023-03-15T12:22:52;20.70;42.20
28959;DHT22;16066;0.000;0.000;2023-03-15T12:27:48;20.80;42.30
28959;DHT22;16066;0.000;0.000;2023-03-15T12:30:40;20.80;42.50
28959;DHT22;16066;0.000;0.000;2023-03-15T12:33:16;20.80;42.70
28959;DHT22;16066;0.000;0.000;2023-03-15T12:35:42;20.80;43.00
28959;DHT22;16066;0.000;0.000;2023-03-15T12:38:20;20.90;43.70
28959;DHT22;16066;0.000;0.000;2023-03-15T12:40:54;20.90;42.90
28959;DHT22;16066;0.000;0.000;2023-03-15T12:51:54;21.00;42.30
28959;DHT22;16066;0.000;0.000;2023-03-15T12:54:21;21.00;42.30
28959;DHT22;16066;0.000;0.000;2023-03-15T12:56:51;21.00;42.30
28959;DHT22;16066;0.000;0.000;2023-03-15T13:02:33;21.00;42.20
28959;DHT22;16066;0.000;0.000;2023-03-15T13:07:48;21.00;42.20
28959;DHT22;16066;0.000;0.000;2023-03-15T13:10:25;21.10;42.40
28959;DHT22;16066;0.000;0.000;2023-03-15T13:13:00;21.10;42.30
28959;DHT22;16066;0.000;0.000;2023-03-15T13:15:38;21.10;42.40
28959;DHT22;16066;0.000;0.000;2023-03-15T13:18:17;21.20;42.70
28959;DHT22;16066;0.000;0.000;2023-03-15T13:20:56;21.20;42.60
28959;DHT22;16066;0.000;0.000;2023-03-15T13:23:28;21.10;42.50
28959;DHT22;16066;0.000;0.000;2023-03-15T13:29:03;21.20;42.50
28959;DHT22;16066;0.000;0.000;2023-03-15T13:31:33;21.20;42.50
28959;DHT22;16066;0.000;0.000;2023-03-15T13:34:14;21.20;42.50
28959;DHT22;16066;0.000;0.000;2023-03-15T13:36:54;21.20;42.50
28959;DHT22;16066;0.000;0.000;2023-03-15T13:39:26;21.20;42.40
28959;DHT22;16066;0.000;0.000;2023-03-15T13:42:04;21.30;42.50
28959;DHT22;16066;0.000;0.000;2023-03-15T13:44:32;21.30;43.30
28959;DHT22;16066;0.000;0.000;2023-03-15T13:46:58;21.30;42.60
28959;DHT22;16066;0.000;0.000;2023-03-15T13:49:24;21.30;42.60
28959;DHT22;16066;0.000;0.000;2023-03-15T13:51:51;21.30;42.70
28959;DHT22;16066;0.000;0.000;2023-03-15T13:54:18;21.30;42.50
28959;DHT22;16066;0.000;0.000;2023-03-15T13:59:34;21.30;42.30
28959;DHT22;16066;0.000;0.000;2023-03-15T14:02:03;21.30;42.30
28959;DHT22;16066;0.000;0.000;2023-03-15T14:04:33;21.30;42.00
28959;DHT22;16066;0.000;0.000;2023-03-15T14:07:27;21.30;41.90
28959;DHT22;16066;0.000;0.000;2023-03-15T14:12:49;21.40;41.50
28959;DHT22;16066;0.000;0.000;2023-03-15T14:15:25;21.40;41.30
28959;DHT22;16066;0.000;0.000;2023-03-15T14:18:03;21.40;41.20
28959;DHT22;16066;0.000;0.000;2023-03-15T14:20:42;21.50;41.20
28959;DHT22;16066;0.000;0.000;2023-03-15T14:23:14;21.50;41.10
28959;DHT22;16066;0.000;0.000;2023-03-15T14:25:41;21.50;41.00
28959;DHT22;16066;0.000;0.000;2023-03-15T14:28:14;21.50;40.90
28959;DHT22;16066;0.000;0.000;2023-03-15T14:30:41;21.50;40.70
28959;DHT22;16066;0.000;0.000;2023-03-15T14:33:29;21.60;40.70
28959;DHT22;16066;0.000;0.000;2023-03-15T14:35:58;21.60;40.50
28959;DHT22;16066;0.000;0.000;2023-03-15T14:38:25;21.70;40.50
28959;DHT22;16066;0.000;0.000;2023-03-15T14:41:10;21.80;40.50
28959;DHT22;16066;0.000;0.000;2023-03-15T14:43:37;21.90;40.10
28959;DHT22;16066;0.000;0.000;2023-03-15T14:46:04;22.00;40.00
28959;DHT22;16066;0.000;0.000;2023-03-15T14:48:30;22.00;40.40
28959;DHT22;16066;0.000;0.000;2023-03-15T14:50:58;22.10;39.80
28959;DHT22;16066;0.000;0.000;2023-03-15T14:53:25;22.20;39.50
28959;DHT22;16066;0.000;0.000;2023-03-15T14:55:54;22.20;39.20
28959;DHT22;16066;0.000;0.000;2023-03-15T14:58:20;22.20;38.90
28959;DHT22;16066;0.000;0.000;2023-03-15T15:00:50;22.30;38.50
28959;DHT22;16066;0.000;0.000;2023-03-15T15:03:19;22.30;38.30
28959;DHT22;16066;0.000;0.000;2023-03-15T15:05:47;22.40;38.00
28959;DHT22;16066;0.000;0.000;2023-03-15T15:08:15;22.40;38.70
28959;DHT22;16066;0.000;0.000;2023-03-15T15:10:42;22.50;38.00
28959;DHT22;16066;0.000;0.000;2023-03-15T15:13:28;22.40;37.50
28959;DHT22;16066;0.000;0.000;2023-03-15T15:15:54;22.40;37.60
28959;DHT22;16066;0.000;0.000;2023-03-15T15:18:24;22.30;38.20
28959;DHT22;16066;0.000;0.000;2023-03-15T15:20:50;22.30;37.40
28959;DHT22;16066;0.000;0.000;2023-03-15T15:23:26;22.30;37.10
28959;DHT22;16066;0.000;0.000;2023-03-15T15:25:59;22.30;37.20
28959;DHT22;16066;0.000;0.000;2023-03-15T15:28:26;22.30;37.40
28959;DHT22;16066;0.000;0.000;2023-03-15T15:30:52;22.20;37.60
28959;DHT22;16066;0.000;0.000;2023-03-15T15:33:18;22.30;37.80
28959;DHT22;16066;0.000;0.000;2023-03-15T15:35:43;22.20;39.50
28959;DHT22;16066;0.000;0.000;2023-03-15T15:38:12;22.20;38.00
28959;DHT22;16066;0.000;0.000;2023-03-15T15:40:38;22.20;37.80
28959;DHT22;16066;0.000;0.000;2023-03-15T15:43:04;22.20;37.90
28959;DHT22;16066;0.000;0.000;2023-03-15T15:45:30;22.20;37.90
28959;DHT22;16066;0.000;0.000;2023-03-15T15:47:59;22.10;37.80
28959;DHT22;16066;0.000;0.000;2023-03-15T15:50:32;22.10;38.10
28959;DHT22;16066;0.000;0.000;2023-03-15T15:53:00;22.00;38.10
28959;DHT22;16066;0.000;0.000;2023-03-15T15:55:28;22.00;38.20
28959;DHT22;16066;0.000;0.000;2023-03-15T15:57:56;21.90;38.30
28959;DHT22;16066;0.000;0.000;2023-03-15T16:00:23;21.90;38.50
28959;DHT22;16066;0.000;0.000;2023-03-15T16:02:49;21.80;38.60
28959;DHT22;16066;0.000;0.000;2023-03-15T16:05:17;21.80;38.50
28959;DHT22;16066;0.000;0.000;2023-03-15T16:07:42;21.70;38.60
28959;DHT22;16066;0.000;0.000;2023-03-15T16:10:33;21.70;38.80
28959;DHT22;16066;0.000;0.000;2023-03-15T16:13:01;21.60;38.80
28959;DHT22;16066;0.000;0.000;2023-03-15T16:15:27;21.60;38.80
28959;DHT22;16066;0.000;0.000;2023-03-15T16:17:53;21.60;38.90
28959;DHT22;16066;0.000;0.000;2023-03-15T16:20:19;21.50;38.90
28959;DHT22;16066;0.000;0.000;2023-03-15T16:22:48;21.50;38.90
28959;DHT22;16066;0.000;0.000;2023-03-15T16:25:21;21.40;38.60
28959;DHT22;16066;0.000;0.000;2023-03-15T16:27:52;21.40;38.60
28959;DHT22;16066;0.000;0.000;2023-03-15T16:30:21;21.40;38.60
28959;DHT22;16066;0.000;0.000;2023-03-15T16:32:48;21.30;38.60
28959;DHT22;16066;0.000;0.000;2023-03-15T16:35:19;21.30;38.70
28959;DHT22;16066;0.000;0.000;2023-03-15T16:37:45;21.30;39.10
28959;DHT22;16066;0.000;0.000;2023-03-15T16:40:19;21.30;39.00
28959;DHT22;16066;0.000;0.000;2023-03-15T16:42:47;21.30;39.20
28959;DHT22;16066;0.000;0.000;2023-03-15T16:45:13;21.30;39.20
28959;DHT22;16066;0.000;0.000;2023-03-15T16:47:39;21.20;39.20
28959;DHT22;16066;0.000;0.000;2023-03-15T16:50:05;21.20;39.30
28959;DHT22;16066;0.000;0.000;2023-03-15T16:52:30;21.20;39.30
28959;DHT22;16066;0.000;0.000;2023-03-15T16:54:57;21.20;39.20
28959;DHT22;16066;0.000;0.000;2023-03-15T16:57:23;21.10;39.10
28959;DHT22;16066;0.000;0.000;2023-03-15T16:59:49;21.10;39.00
28959;DHT22;16066;0.000;0.000;2023-03-15T17:02:20;21.10;38.90
28959;DHT22;16066;0.000;0.000;2023-03-15T17:04:47;21.10;39.00